Time;durP1;ratioP1;P1;durP2;ratioP2;P2;SDS_P1;SDS_P2;PMS_P1;PMS_P2;Temp;Humidity;BMP_temperature;BMP_pressure;BME280_temperature;BME280_humidity;BME280_pressure;Samples;Min_cycle;Max_cycle;Signal;HPM_P1;HPM_P2
2021/11/03 00:00:33;;;;;;;14.50;11.35;;;;;;;9.34;82.43;99026.47;2812469;84;21053;-70
2021/11/03 00:04:39;;;;;;;16.95;12.40;;;;;;;9.34;82.03;99028.27;2812484;84;21053;-70
2021/11/03 00:08:41;;;;;;;23.18;15.98;;;;;;;9.28;82.07;99030.55;2812279;84;21113;-70
2021/11/03 00:12:49;;;;;;;17.50;12.75;;;;;;;9.21;81.98;99032.61;2812239;84;20991;-69
2021/11/03 00:16:52;;;;;;;14.68;10.65;;;;;;;9.19;82.04;99042.03;2812196;84;21041;-70
2021/11/03 00:20:58;;;;;;;20.82;12.73;;;;;;;9.08;81.78;99044.89;2811865;84;21068;-70
2021/11/03 00:25:00;;;;;;;18.02;12.28;;;;;;;8.93;83.14;99046.69;2812480;84;21013;-70
2021/11/03 00:29:02;;;;;;;18.32;12.33;;;;;;;8.88;84.37;99052.92;2811529;83;21034;-70
2021/11/03 00:33:08;;;;;;;19.05;13.55;;;;;;;8.93;84.13;99053.80;2812121;84;21017;-70
2021/11/03 00:37:10;;;;;;;12.73;9.67;;;;;;;8.94;83.63;99053.66;2812046;84;21116;-70
2021/11/03 00:41:14;;;;;;;13.35;9.98;;;;;;;8.92;82.86;99055.63;2811793;84;21089;-70
2021/11/03 00:45:16;;;;;;;19.07;12.03;;;;;;;8.93;82.35;99055.97;2812090;84;20990;-70
2021/11/03 00:49:19;;;;;;;13.68;10.05;;;;;;;8.92;82.16;99052.98;2812183;84;21013;-70
2021/11/03 00:53:21;;;;;;;15.43;9.73;;;;;;;8.93;82.08;99055.97;2811956;84;21101;-70
2021/11/03 00:57:22;;;;;;;15.78;11.57;;;;;;;8.85;81.66;99051.90;2812291;84;21065;-70
2021/11/03 01:01:24;;;;;;;11.70;10.03;;;;;;;8.83;81.48;99057.81;2812283;84;21026;-70
2021/11/03 01:05:27;;;;;;;15.95;10.30;;;;;;;8.82;81.39;99055.66;2811515;84;21081;-70
2021/11/03 01:09:29;;;;;;;16.45;12.33;;;;;;;8.78;81.62;99067.55;2812382;84;21010;-70
2021/11/03 01:13:31;;;;;;;19.87;12.15;;;;;;;8.62;82.44;99066.80;2812197;84;20998;-71
2021/11/03 01:17:34;;;;;;;16.67;12.75;;;;;;;8.55;83.18;99066.56;2812282;84;21022;-70
2021/11/03 01:21:38;;;;;;;16.32;11.63;;;;;;;8.59;83.63;99060.97;2818165;83;21578;-70
2021/11/03 01:25:39;;;;;;;19.35;14.68;;;;;;;8.64;84.03;99056.06;2812404;84;21029;-70
2021/11/03 01:29:41;;;;;;;18.30;13.15;;;;;;;8.66;84.03;99058.93;2812315;83;21018;-70
2021/11/03 01:33:43;;;;;;;19.37;12.60;;;;;;;8.72;84.21;99056.17;2812124;84;21014;-70
2021/11/03 01:37:46;;;;;;;17.48;12.13;;;;;;;8.80;84.39;99054.13;2812329;84;21049;-70
2021/11/03 01:41:48;;;;;;;17.10;11.30;;;;;;;8.75;84.53;99053.73;2812289;84;21534;-70
2021/11/03 01:45:50;;;;;;;15.03;11.63;;;;;;;8.62;85.69;99048.75;2812396;84;21006;-70
2021/11/03 01:49:52;;;;;;;20.20;13.78;;;;;;;8.61;85.93;99049.23;2812474;84;21010;-70
2021/11/03 01:53:54;;;;;;;14.85;11.90;;;;;;;8.67;86.61;99044.70;2812595;84;21011;-70
2021/11/03 01:58:06;;;;;;;18.40;13.28;;;;;;;8.74;87.75;99041.45;2812578;84;21019;-70
2021/11/03 02:02:08;;;;;;;19.67;14.33;;;;;;;8.75;88.01;99039.15;2812279;84;21422;-70
2021/11/03 02:06:14;;;;;;;17.67;14.10;;;;;;;8.70;88.72;99032.47;2812523;84;21081;-70
2021/11/03 02:10:16;;;;;;;16.48;13.28;;;;;;;8.61;88.18;99037.80;2818375;83;21093;-70
2021/11/03 02:14:18;;;;;;;20.10;13.58;;;;;;;8.49;87.70;99035.78;2812267;84;21086;-69
2021/11/03 02:18:22;;;;;;;12.40;11.00;;;;;;;8.37;87.71;99047.86;2812813;84;21519;-70
2021/11/03 02:22:54;;;;;;;34.18;11.80;;;;;;;8.36;88.05;99036.91;2812601;84;21029;-70
2021/11/03 02:26:58;;;;;;;16.07;12.07;;;;;;;8.34;88.68;99034.90;2812576;84;21042;-70
2021/11/03 02:31:00;;;;;;;15.28;11.68;;;;;;;8.38;88.14;99040.76;2830015;84;21049;-70
2021/11/03 02:35:03;;;;;;;14.33;11.55;;;;;;;8.39;88.56;99040.59;2842283;84;21043;-70
2021/11/03 02:39:08;;;;;;;17.60;11.83;;;;;;;8.43;88.61;99044.62;2842444;84;21009;-70
2021/11/03 02:43:32;;;;;;;18.80;11.75;;;;;;;8.43;88.97;99041.98;2842408;84;21051;-70
2021/11/03 02:47:35;;;;;;;20.62;13.98;;;;;;;8.51;88.38;99039.16;2841510;83;21299;-70
2021/11/03 02:51:43;;;;;;;25.20;17.52;;;;;;;8.62;88.10;99040.30;2842566;84;21004;-70
2021/11/03 02:55:46;;;;;;;20.10;14.43;;;;;;;8.68;88.08;99042.39;2842137;84;21019;-70
2021/11/03 02:59:48;;;;;;;17.57;14.15;;;;;;;8.68;88.42;99035.77;2842324;84;21035;-70
2021/11/03 03:03:50;;;;;;;20.08;13.83;;;;;;;8.69;88.95;99038.76;2842114;84;21086;-70
2021/11/03 03:07:52;;;;;;;23.22;17.40;;;;;;;8.69;89.16;99032.61;2842287;84;21094;-70
2021/11/03 03:11:58;;;;;;;24.10;16.25;;;;;;;8.52;89.25;99040.31;2842228;82;21558;-70
2021/11/03 03:16:00;;;;;;;17.37;14.03;;;;;;;8.45;88.71;99041.84;2841828;84;21114;-70
2021/11/03 03:20:05;;;;;;;24.35;15.45;;;;;;;8.32;88.88;99046.13;2842131;84;21015;-70
2021/11/03 03:24:09;;;;;;;26.30;15.88;;;;;;;8.34;89.14;99050.80;2841822;84;21015;-70
2021/11/03 03:28:14;;;;;;;17.87;14.07;;;;;;;8.50;89.14;99051.55;2842391;84;21039;-70
2021/11/03 03:32:15;;;;;;;24.70;18.35;;;;;;;8.69;89.11;99057.31;2841860;83;21055;-70
2021/11/03 03:36:18;;;;;;;24.07;17.42;;;;;;;8.83;88.30;99061.78;2842187;84;20980;-69
2021/11/03 03:40:20;;;;;;;16.87;12.80;;;;;;;8.89;87.84;99070.51;2842103;84;21027;-70
2021/11/03 03:44:22;;;;;;;18.52;12.45;;;;;;;8.92;87.80;99072.87;2842183;84;21074;-70
2021/11/03 03:48:24;;;;;;;22.70;14.53;;;;;;;8.91;88.34;99072.52;2842312;84;21063;-70
2021/11/03 03:52:26;;;;;;;19.37;14.03;;;;;;;8.97;88.06;99083.05;2845470;82;21030;-70
2021/11/03 03:56:28;;;;;;;17.92;13.58;;;;;;;8.99;87.61;99077.92;2850757;83;21047;-70
2021/11/03 04:00:30;;;;;;;18.30;12.88;;;;;;;8.92;87.37;99076.84;2832413;82;21011;-70
2021/11/03 04:04:32;;;;;;;17.92;12.33;;;;;;;8.85;87.62;99077.91;2806662;82;21059;-70
2021/11/03 04:08:34;;;;;;;15.43;11.78;;;;;;;8.79;87.67;99074.99;2824148;82;21003;-71
2021/11/03 04:12:36;;;;;;;17.98;13.05;;;;;;;8.81;87.26;99075.68;2813749;83;21097;-73
2021/11/03 04:16:38;;;;;;;20.55;13.68;;;;;;;8.88;86.86;99077.27;2851083;83;21038;-73
2021/11/03 04:20:39;;;;;;;23.95;16.57;;;;;;;8.85;86.17;99062.00;2851008;83;21023;-73
2021/11/03 04:24:41;;;;;;;28.62;17.17;;;;;;;8.95;86.11;99057.98;2850627;83;21058;-73
2021/11/03 04:28:44;;;;;;;25.20;12.98;;;;;;;8.97;85.32;99061.83;2831741;83;20967;-73
2021/11/03 04:32:46;;;;;;;20.97;14.25;;;;;;;8.99;84.73;99048.75;2850663;83;21078;-73
2021/11/03 04:36:49;;;;;;;17.45;12.53;;;;;;;8.92;83.58;99062.73;2791975;84;21003;-74
2021/11/03 04:40:50;;;;;;;19.57;13.32;;;;;;;8.82;83.40;99074.23;2849718;83;21018;-73
2021/11/03 04:44:52;;;;;;;18.15;11.28;;;;;;;8.66;82.87;99080.14;2849514;83;21061;-73
2021/11/03 04:48:55;;;;;;;16.45;10.82;;;;;;;8.56;83.12;99074.01;2849567;83;21030;-73
2021/11/03 04:52:57;;;;;;;14.73;10.63;;;;;;;8.57;83.42;99097.73;2849841;83;21037;-73
2021/11/03 04:57:00;;;;;;;12.73;10.03;;;;;;;8.49;82.77;99094.09;2849746;83;20997;-73
2021/11/03 05:01:02;;;;;;;14.95;10.93;;;;;;;8.39;83.00;99103.38;2849788;83;21102;-74
2021/11/03 05:05:05;;;;;;;18.15;12.63;;;;;;;8.35;83.25;99102.81;2849517;83;21081;-70
2021/11/03 05:09:08;;;;;;;17.73;11.25;;;;;;;8.19;83.76;99114.45;2849594;83;21041;-72
2021/11/03 05:13:10;;;;;;;16.95;11.75;;;;;;;8.04;84.60;99108.73;2849346;82;21018;-72
2021/11/03 05:17:12;;;;;;;18.67;11.68;;;;;;;8.01;84.83;99108.52;2849735;83;21034;-72
2021/11/03 05:21:14;;;;;;;13.18;9.30;;;;;;;8.10;85.46;99111.67;2849428;83;21061;-72
2021/11/03 05:25:20;;;;;;;12.55;9.78;;;;;;;8.19;85.02;99114.45;2819114;84;21022;-72
2021/11/03 05:29:22;;;;;;;14.35;12.28;;;;;;;8.18;84.60;99114.11;2832003;84;21039;-72
2021/11/03 05:33:24;;;;;;;13.83;10.13;;;;;;;8.18;84.73;99114.95;2796354;85;21007;-73
2021/11/03 05:37:26;;;;;;;15.70;11.48;;;;;;;8.20;84.37;99113.47;2796403;84;21081;-72
2021/11/03 05:41:28;;;;;;;12.18;9.18;;;;;;;8.14;84.42;99106.91;2796513;84;20975;-73
2021/11/03 05:45:30;;;;;;;13.45;10.20;;;;;;;8.05;84.36;99111.23;2796435;85;21062;-72
2021/11/03 05:49:35;;;;;;;14.28;10.43;;;;;;;8.05;84.59;99115.70;2796210;85;21070;-72
2021/11/03 05:53:38;;;;;;;13.38;9.55;;;;;;;8.04;85.03;99115.36;2796649;85;21101;-73
2021/11/03 05:57:40;;;;;;;12.60;9.98;;;;;;;8.05;85.70;99125.80;2796831;85;21034;-72
2021/11/03 06:01:42;;;;;;;12.78;8.83;;;;;;;8.06;86.26;99127.97;2796757;85;21086;-73
2021/11/03 06:05:44;;;;;;;16.52;10.82;;;;;;;8.14;86.21;99135.58;2796636;84;21090;-73
2021/11/03 06:09:46;;;;;;;15.75;9.33;;;;;;;8.24;85.39;99132.08;2796848;84;21042;-73
2021/11/03 06:13:48;;;;;;;14.43;9.98;;;;;;;8.30;84.27;99136.84;2796790;84;21042;-73
2021/11/03 06:17:51;;;;;;;8.88;7.95;;;;;;;8.13;84.78;99135.23;2796719;85;21050;-73
2021/11/03 06:21:53;;;;;;;10.10;8.20;;;;;;;8.14;85.13;99134.25;2796812;85;21520;-73
2021/11/03 06:25:55;;;;;;;12.80;9.05;;;;;;;8.19;85.05;99142.27;2796488;84;21026;-73
2021/11/03 06:29:57;;;;;;;10.35;7.05;;;;;;;8.15;85.50;99145.20;2799160;84;21571;-73
2021/11/03 06:33:59;;;;;;;12.70;9.65;;;;;;;8.19;85.56;99140.94;2827338;83;21013;-73
2021/11/03 06:38:04;;;;;;;14.38;7.42;;;;;;;8.24;85.82;99142.68;2827125;83;21023;-73
2021/11/03 06:42:05;;;;;;;14.68;9.48;;;;;;;8.31;86.30;99150.44;2827475;84;21713;-73
2021/11/03 06:46:10;;;;;;;14.47;8.90;;;;;;;8.41;86.91;99151.27;2827332;84;20995;-73
2021/11/03 06:50:16;;;;;;;16.50;10.85;;;;;;;8.57;87.97;99149.42;2827311;84;21051;-73
2021/11/03 06:54:21;;;;;;;;;;;;;;;8.81;87.51;99145.95;2829920;83;21019;-73
2021/11/03 06:58:22;;;;;;;11.15;8.85;;;;;;;8.81;86.67;99149.92;2827733;82;20106;-73
2021/11/03 07:02:24;;;;;;;11.45;8.18;;;;;;;8.86;86.70;99146.38;2827405;84;21004;-73
2021/11/03 07:06:26;;;;;;;18.52;11.10;;;;;;;8.91;87.34;99153.41;2827412;84;21039;-73
2021/11/03 07:10:32;;;;;;;16.67;10.95;;;;;;;8.79;88.53;99154.06;2827392;84;21074;-73
2021/11/03 07:14:34;;;;;;;13.15;8.40;;;;;;;8.86;88.49;99159.64;2827288;84;21000;-73
2021/11/03 07:18:35;;;;;;;12.37;7.85;;;;;;;8.91;88.01;99162.70;2827414;84;21106;-73
2021/11/03 07:22:37;;;;;;;8.43;6.37;;;;;;;8.98;87.61;99165.11;2827569;84;20996;-73
2021/11/03 07:26:41;;;;;;;11.40;8.75;;;;;;;9.07;87.67;99175.36;2827397;84;21035;-73
2021/11/03 07:30:44;;;;;;;8.70;7.33;;;;;;;9.34;87.42;99172.91;2820861;84;21665;-73
2021/11/03 07:34:48;;;;;;;9.33;8.38;;;;;;;9.55;87.12;99184.64;2796816;84;21086;-73
2021/11/03 07:38:51;;;;;;;11.28;9.08;;;;;;;9.79;86.37;99187.25;2796788;85;21023;-73
2021/11/03 07:42:53;;;;;;;12.63;9.48;;;;;;;9.93;86.39;99179.27;2796735;84;21058;-73
2021/11/03 07:46:56;;;;;;;12.98;9.43;;;;;;;10.09;85.77;99192.73;2796923;85;21109;-73
2021/11/03 07:51:05;;;;;;;12.47;9.35;;;;;;;10.26;85.85;99196.90;2797088;85;21074;-73
2021/11/03 07:55:08;;;;;;;12.40;9.15;;;;;;;10.53;84.97;99197.84;2796627;84;20980;-73
2021/11/03 07:59:10;;;;;;;11.18;9.48;;;;;;;10.68;85.04;99196.80;2796598;85;21018;-73
2021/11/03 08:03:12;;;;;;;14.07;10.80;;;;;;;10.84;84.19;99206.76;2796627;85;21053;-73
2021/11/03 08:07:14;;;;;;;15.63;9.45;;;;;;;11.03;83.75;99212.89;2796742;84;20995;-73
2021/11/03 08:11:16;;;;;;;22.35;8.70;;;;;;;11.21;82.53;99218.16;2796830;84;20984;-73
2021/11/03 08:15:17;;;;;;;10.82;8.43;;;;;;;11.36;83.23;99207.76;2796686;85;21043;-73
2021/11/03 08:19:23;;;;;;;8.85;6.80;;;;;;;11.50;80.87;99212.50;2796352;85;21050;-73
2021/11/03 08:23:25;;;;;;;11.68;9.43;;;;;;;11.60;80.69;99216.90;2797195;85;21058;-73
2021/11/03 08:27:27;;;;;;;10.20;6.97;;;;;;;11.69;80.54;99211.94;2797125;84;21056;-73
2021/11/03 08:31:29;;;;;;;7.35;6.17;;;;;;;11.86;80.04;99218.16;2796658;84;21102;-73
2021/11/03 08:35:31;;;;;;;8.38;5.03;;;;;;;12.02;79.47;99217.92;2796683;85;21074;-73
2021/11/03 08:39:39;;;;;;;7.42;4.85;;;;;;;12.31;78.86;99216.69;2796975;84;21058;-73
2021/11/03 08:43:42;;;;;;;8.45;4.50;;;;;;;12.39;76.28;99212.20;2796797;85;21023;-73
2021/11/03 08:47:45;;;;;;;4.45;4.05;;;;;;;12.63;75.19;99219.89;2824405;83;21688;-73
2021/11/03 08:51:47;;;;;;;8.03;4.62;;;;;;;12.63;74.84;99217.22;2797127;85;20959;-73
2021/11/03 08:55:52;;;;;;;7.08;4.33;;;;;;;12.74;74.85;99217.88;2796943;85;21309;-73
2021/11/03 08:59:56;;;;;;;8.67;5.57;;;;;;;12.68;75.31;99215.41;2796803;84;21055;-73
2021/11/03 09:03:58;;;;;;;4.20;3.80;;;;;;;12.81;73.97;99219.72;2796934;85;21066;-73
2021/11/03 09:08:03;;;;;;;5.40;3.95;;;;;;;12.91;72.98;99217.41;2796956;85;20999;-73
2021/11/03 09:12:07;;;;;;;5.60;4.75;;;;;;;12.94;73.54;99209.88;2797241;85;20987;-73
2021/11/03 09:16:08;;;;;;;5.10;4.15;;;;;;;13.08;73.18;99203.53;2796752;84;21011;-74
2021/11/03 09:20:13;;;;;;;8.50;4.85;;;;;;;13.25;72.89;99202.51;2796783;84;21062;-73
2021/11/03 09:24:14;;;;;;;4.87;3.98;;;;;;;13.40;72.15;99200.48;2797070;84;21469;-73
2021/11/03 09:28:16;;;;;;;5.08;3.70;;;;;;;13.45;71.44;99192.81;2796953;84;21014;-73
2021/11/03 09:32:22;;;;;;;4.90;3.80;;;;;;;13.61;71.15;99192.44;2814920;81;21082;-74
2021/11/03 09:36:25;;;;;;;5.70;4.37;;;;;;;13.63;70.74;99191.75;2838172;84;21070;-74
2021/11/03 09:40:38;;;;;;;5.85;4.62;;;;;;;13.64;70.00;99186.22;2838379;84;21045;-73
2021/11/03 09:44:43;;;;;;;9.20;5.92;;;;;;;13.50;70.27;99190.45;2837469;83;21067;-73
2021/11/03 09:48:56;;;;;;;9.28;6.33;;;;;;;13.49;70.67;99187.97;2837880;84;21031;-74
2021/11/03 09:53:02;;;;;;;10.98;4.30;;;;;;;13.64;71.32;99182.73;2822132;84;21039;-74
2021/11/03 09:57:34;;;;;;;4.05;3.70;;;;;;;13.78;69.23;99189.19;2838217;84;21007;-73
2021/11/03 10:01:47;;;;;;;6.03;4.78;;;;;;;13.73;69.62;99184.87;2838171;84;21059;-74
2021/11/03 10:06:16;;;;;;;3.98;3.50;;;;;;;13.80;68.56;99179.15;2838107;84;21011;-74
2021/11/03 10:10:37;;;;;;;6.65;4.67;;;;;;;13.88;69.60;99171.59;2837707;84;21082;-74
2021/11/03 10:14:39;;;;;;;157.27;86.22;;;;;;;13.85;69.56;99170.94;2838082;84;20995;-73
2021/11/03 10:19:12;;;;;;;52.35;27.48;;;;;;;13.95;71.26;99160.52;2838117;84;21583;-73
2021/11/03 10:23:24;;;;;;;20.95;9.83;;;;;;;13.98;69.28;99162.87;2838916;81;20960;-73
2021/11/03 10:27:26;;;;;;;3.20;2.60;;;;;;;14.04;70.13;99164.83;2838148;83;21011;-73
2021/11/03 10:31:41;;;;;;;1.65;1.02;;;;;;;14.23;68.50;99167.55;2830781;84;20992;-73
2021/11/03 10:35:54;;;;;;;4.03;2.43;;;;;;;14.29;65.80;99149.96;2797757;85;21061;-73
2021/11/03 10:40:05;;;;;;;1.87;1.65;;;;;;;14.29;66.89;99149.96;2795601;83;21042;-73
2021/11/03 10:44:18;;;;;;;2.62;1.60;;;;;;;14.33;66.81;99152.59;2796779;84;21011;-73
2021/11/03 10:48:27;;;;;;;2.55;2.35;;;;;;;14.39;66.03;99152.39;2797367;84;21066;-73
2021/11/03 10:52:49;;;;;;;4.72;3.62;;;;;;;14.33;66.27;99148.59;2797360;85;20944;-73
2021/11/03 10:57:02;;;;;;;4.95;3.67;;;;;;;14.14;67.21;99148.04;2796895;85;21050;-73
2021/11/03 11:01:14;;;;;;;5.30;4.12;;;;;;;14.15;67.81;99136.85;2799795;83;21052;-74
2021/11/03 11:05:21;;;;;;;9.08;4.05;;;;;;;14.09;68.21;99134.38;2797057;85;21063;-73
2021/11/03 11:09:43;;;;;;;4.40;3.52;;;;;;;14.02;67.05;99130.76;2797303;84;21027;-73
2021/11/03 11:13:53;;;;;;;4.53;4.10;;;;;;;14.07;68.21;99127.04;2772759;85;21065;-73
2021/11/03 11:18:06;;;;;;;3.60;3.00;;;;;;;13.99;68.32;99125.77;2795776;85;21050;-73
2021/11/03 11:22:27;;;;;;;5.70;3.25;;;;;;;14.01;67.57;99125.09;2795655;85;21327;-73
2021/11/03 11:26:54;;;;;;;3.52;3.05;;;;;;;14.08;66.44;99142.08;2797205;84;21007;-73
2021/11/03 11:31:38;;;;;;;5.62;4.75;;;;;;;14.14;66.09;99140.02;2797103;85;21038;-73
2021/11/03 11:36:19;;;;;;;4.25;3.27;;;;;;;14.13;66.96;99137.02;2760797;85;21014;-73
2021/11/03 11:40:42;;;;;;;4.62;4.17;;;;;;;14.02;68.69;99130.76;2797186;84;21034;-73
2021/11/03 11:44:58;;;;;;;4.12;3.80;;;;;;;14.07;67.93;99144.42;2796910;85;21042;-73
2021/11/03 11:49:22;;;;;;;4.42;3.60;;;;;;;14.23;67.39;99138.64;2797338;83;21066;-73
2021/11/03 11:53:56;;;;;;;5.78;4.40;;;;;;;14.26;65.74;99135.61;2795252;84;21581;-73
2021/11/03 11:58:12;;;;;;;5.45;3.83;;;;;;;14.32;66.81;99134.89;2796812;84;21105;-73
2021/11/03 12:02:23;;;;;;;5.00;3.22;;;;;;;14.34;68.45;99132.86;2797209;84;21050;-73
2021/11/03 12:06:53;;;;;;;6.10;3.47;;;;;;;14.12;69.19;99131.87;2797180;85;21062;-73
2021/11/03 12:11:09;;;;;;;3.60;2.92;;;;;;;14.09;67.76;99135.71;2798448;83;21082;-72
2021/11/03 12:15:32;;;;;;;3.25;2.75;;;;;;;14.02;67.42;99131.25;2796662;85;21057;-73
2021/11/03 12:19:42;;;;;;;6.53;3.70;;;;;;;13.89;69.11;99127.81;2797030;85;21049;-73
2021/11/03 12:23:57;;;;;;;4.92;3.08;;;;;;;13.86;69.00;99112.98;2796896;84;21098;-73
2021/11/03 12:28:13;;;;;;;3.95;3.20;;;;;;;13.79;70.36;99112.85;2796802;84;21086;-73
2021/11/03 12:32:46;;;;;;;4.25;2.80;;;;;;;13.95;72.02;99108.39;2659765;89;21141;-73
2021/11/03 12:36:52;;;;;;;2.95;2.22;;;;;;;14.06;71.36;99106.66;2790489;84;21074;-74
2021/11/03 12:40:54;;;;;;;3.83;2.77;;;;;;;14.10;70.26;99097.27;2836014;83;21340;-74
2021/11/03 12:45:22;;;;;;;2.72;1.82;;;;;;;14.11;68.81;99102.94;2835791;84;21122;-73
2021/11/03 12:49:27;;;;;;;45.65;38.05;;;;;;;14.21;70.67;99113.41;2835999;83;21007;-73
2021/11/03 12:53:34;;;;;;;22.77;15.90;;;;;;;14.25;70.20;99096.01;2836046;84;21027;-73
2021/11/03 12:57:36;;;;;;;4.25;3.80;;;;;;;14.31;69.47;99093.63;2836218;84;21035;-73
2021/11/03 13:01:45;;;;;;;10.45;6.33;;;;;;;14.34;70.37;99084.71;2835754;84;21062;-73
2021/11/03 13:05:48;;;;;;;38.45;26.23;;;;;;;14.33;70.23;99080.38;2836133;84;21047;-73
2021/11/03 13:10:16;;;;;;;29.52;23.15;;;;;;;14.32;69.84;99077.90;2836313;84;21066;-73
2021/11/03 13:14:24;;;;;;;9.98;6.90;;;;;;;14.31;69.81;99079.73;2836144;83;21019;-73
2021/11/03 13:18:36;;;;;;;6.95;5.47;;;;;;;14.23;69.32;99069.11;2836480;84;21004;-73
2021/11/03 13:22:46;;;;;;;29.42;12.35;;;;;;;14.24;71.28;99061.41;2836428;84;20995;-73
2021/11/03 13:26:50;;;;;;;17.45;11.50;;;;;;;14.19;71.82;99060.60;2836090;83;21035;-74
2021/11/03 13:31:18;;;;;;;5.00;3.62;;;;;;;14.12;71.42;99050.31;2836408;84;21011;-74
2021/11/03 13:35:24;;;;;;;8.83;5.03;;;;;;;14.11;71.69;99056.14;2733677;86;21051;-74
2021/11/03 13:39:34;;;;;;;6.30;4.65;;;;;;;14.09;72.16;99057.36;2734797;87;21031;-73
2021/11/03 13:43:35;;;;;;;5.03;3.67;;;;;;;14.05;72.56;99050.19;2734449;87;21032;-73
2021/11/03 13:47:37;;;;;;;7.55;5.25;;;;;;;14.01;72.73;99046.22;2734913;87;21058;-73
2021/11/03 13:51:53;;;;;;;4.85;3.45;;;;;;;13.95;73.54;99037.06;2734993;85;21095;-73
2021/11/03 13:56:08;;;;;;;4.67;3.90;;;;;;;13.90;73.63;99042.61;2697804;87;21050;-73
2021/11/03 14:00:26;;;;;;;4.42;4.03;;;;;;;13.81;73.40;99049.36;2734877;86;21078;-74
2021/11/03 14:04:45;;;;;;;4.70;4.30;;;;;;;13.77;72.62;99068.09;2734699;87;21084;-74
2021/11/03 14:08:49;;;;;;;5.97;4.70;;;;;;;13.75;73.24;99078.63;2734884;86;21036;-74
2021/11/03 14:12:51;;;;;;;9.78;5.70;;;;;;;13.70;74.51;99084.49;2799784;83;21019;-80
2021/11/03 14:17:18;;;;;;;12.28;6.05;;;;;;;13.64;74.14;99087.35;2798168;83;20987;-83
2021/11/03 14:21:20;;;;;;;;;;;;;;;13.60;74.49;99082.04;2789189;83;21062;-82
2021/11/03 14:25:30;;;;;;;10.00;7.72;;;;;;;13.47;74.19;99071.92;2786417;85;20139;-82
2021/11/03 14:29:33;;;;;;;15.05;10.72;;;;;;;13.36;74.28;99075.78;2786615;84;21351;-82
2021/11/03 14:33:42;;;;;;;20.48;14.35;;;;;;;13.27;75.04;99081.66;2787709;85;21079;-79
2021/11/03 14:37:47;;;;;;;8.95;5.90;;;;;;;13.23;75.72;99088.36;2789295;84;21062;-77
2021/11/03 14:41:52;;;;;;;5.85;5.10;;;;;;;13.25;76.69;99081.00;2807279;84;21070;-78
2021/11/03 14:45:54;;;;;;;7.05;5.50;;;;;;;13.19;76.82;99069.69;2825775;84;21014;-72
2021/11/03 14:50:09;;;;;;;6.62;4.62;;;;;;;13.14;76.91;99068.02;2826537;84;21633;-72
2021/11/03 14:54:18;;;;;;;7.63;6.30;;;;;;;13.04;77.04;99052.72;2820215;84;21066;-75
2021/11/03 14:58:21;;;;;;;7.35;6.25;;;;;;;12.88;77.62;99050.42;2826025;84;21517;-74
2021/11/03 15:02:31;;;;;;;7.70;5.70;;;;;;;12.69;77.74;99037.80;2826069;83;21018;-74
2021/11/03 15:06:33;;;;;;;11.20;7.75;;;;;;;12.53;77.39;99039.16;2826056;84;20995;-74
2021/11/03 15:10:34;;;;;;;11.30;8.05;;;;;;;12.41;77.54;99033.34;2825943;83;20991;-76
2021/11/03 15:14:39;;;;;;;44.83;30.55;;;;;;;12.43;78.44;99038.84;2826261;82;21446;-73
2021/11/03 15:18:41;;;;;;;38.10;25.68;;;;;;;12.34;79.05;99032.36;2826387;83;21062;-75
2021/11/03 15:22:42;;;;;;;15.43;10.48;;;;;;;12.26;79.53;99039.86;2826264;84;21079;-75
2021/11/03 15:26:44;;;;;;;6.45;5.62;;;;;;;12.18;79.30;99042.03;2825968;84;21035;-75
2021/11/03 15:30:49;;;;;;;9.20;6.83;;;;;;;12.14;79.78;99041.52;2826272;84;21324;-76
2021/11/03 15:34:53;;;;;;;11.20;7.95;;;;;;;11.93;80.72;99039.33;2814994;84;21547;-76
2021/11/03 15:39:00;;;;;;;29.40;17.40;;;;;;;11.71;81.46;99036.79;2828716;84;21357;-75
2021/11/03 15:43:06;;;;;;;37.15;18.52;;;;;;;11.72;80.97;99030.47;2848787;83;21011;-73
2021/11/03 15:47:19;;;;;;;9.23;6.35;;;;;;;11.60;81.46;99036.60;2849295;83;21038;-72
2021/11/03 15:51:21;;;;;;;9.15;6.87;;;;;;;11.71;81.00;99050.95;2849056;83;21097;-73
2021/11/03 15:55:25;;;;;;;14.70;8.65;;;;;;;11.73;80.76;99042.78;2759961;85;21006;-72
2021/11/03 15:59:28;;;;;;;15.48;9.38;;;;;;;11.49;82.15;99041.73;2753330;86;20999;-74
2021/11/03 16:03:54;;;;;;;8.88;7.47;;;;;;;11.37;82.98;99048.34;2801761;84;21030;-76
2021/11/03 16:07:57;;;;;;;10.95;5.37;;;;;;;11.35;82.72;99054.34;2752997;86;21089;-74
2021/11/03 16:12:02;;;;;;;8.45;5.92;;;;;;;11.28;82.75;99054.98;2786112;85;21026;-72
2021/11/03 16:16:06;;;;;;;16.55;12.13;;;;;;;11.35;82.24;99051.19;2814286;84;21034;-74
2021/11/03 16:20:11;;;;;;;22.32;16.00;;;;;;;11.34;82.11;99032.70;2798351;84;21237;-73
2021/11/03 16:24:18;;;;;;;37.28;23.38;;;;;;;11.28;82.25;99034.17;2814259;84;21042;-73
2021/11/03 16:28:24;;;;;;;26.87;16.85;;;;;;;11.29;82.06;99029.19;2814511;84;20994;-73
2021/11/03 16:32:26;;;;;;;38.78;21.82;;;;;;;11.19;82.46;99031.98;2814755;84;21004;-74
2021/11/03 16:36:28;;;;;;;48.85;27.60;;;;;;;10.99;83.38;99040.73;2803417;85;21018;-74
2021/11/03 16:40:35;;;;;;;49.30;33.30;;;;;;;10.82;84.19;99057.11;2808133;84;21057;-75
2021/11/03 16:44:36;;;;;;;33.02;23.60;;;;;;;10.70;84.26;99061.84;2832468;83;21040;-74
2021/11/03 16:48:39;;;;;;;57.85;44.33;;;;;;;10.61;84.61;99060.98;2832999;84;21052;-74
2021/11/03 16:52:41;;;;;;;27.02;20.32;;;;;;;10.69;83.97;99064.16;2795963;85;21053;-75
2021/11/03 16:56:44;;;;;;;26.70;20.72;;;;;;;10.76;82.94;99065.22;2832511;84;21103;-74
2021/11/03 17:00:53;;;;;;;20.48;15.38;;;;;;;10.74;82.54;99062.37;2796431;85;21038;-74
2021/11/03 17:04:55;;;;;;;25.15;16.25;;;;;;;10.71;83.21;99062.20;2832548;84;21005;-75
2021/11/03 17:08:58;;;;;;;22.77;13.85;;;;;;;10.48;84.48;99058.70;2832617;84;21033;-73
2021/11/03 17:13:00;;;;;;;25.32;18.12;;;;;;;10.38;85.13;99058.77;2796075;85;21062;-74
2021/11/03 17:17:02;;;;;;;20.20;15.38;;;;;;;10.39;84.33;99052.47;2832519;84;21045;-74
2021/11/03 17:21:05;;;;;;;32.45;18.32;;;;;;;10.40;83.96;99062.14;2796221;85;21232;-74
2021/11/03 17:25:08;;;;;;;92.80;73.25;;;;;;;10.47;84.21;99063.69;2832666;84;21076;-73
2021/11/03 17:29:27;;;;;;;47.75;34.35;;;;;;;10.55;84.04;99054.94;2795903;85;21380;-74
2021/11/03 17:33:28;;;;;;;17.25;14.45;;;;;;;10.64;83.80;99055.34;2830896;83;21005;-74
2021/11/03 17:37:30;;;;;;;16.15;12.98;;;;;;;10.69;84.08;99053.04;2857300;83;21024;-74
2021/11/03 17:41:35;;;;;;;17.57;14.43;;;;;;;10.75;84.13;99042.75;2827143;84;21053;-75
2021/11/03 17:45:36;;;;;;;16.75;11.88;;;;;;;10.77;84.19;99039.44;2827170;84;21104;-74
2021/11/03 17:49:43;;;;;;;16.20;9.68;;;;;;;10.77;84.27;99033.64;2806913;85;21044;-75
2021/11/03 17:53:46;;;;;;;10.32;8.28;;;;;;;10.83;84.41;99023.69;2853161;83;21032;-75
2021/11/03 17:57:53;;;;;;;11.83;8.48;;;;;;;10.92;84.42;99011.26;2853010;83;21001;-73
2021/11/03 18:01:55;;;;;;;9.98;9.00;;;;;;;10.93;83.97;99008.12;2853116;83;21009;-73
2021/11/03 18:05:57;;;;;;;14.95;9.70;;;;;;;10.85;83.84;99004.92;2853494;83;21012;-73
2021/11/03 18:09:59;;;;;;;20.02;11.45;;;;;;;10.75;84.33;99011.69;2850628;82;21036;-73
2021/11/03 18:14:21;;;;;;;16.87;9.30;;;;;;;10.70;84.91;98996.20;2822287;84;21018;-75
2021/11/03 18:18:29;;;;;;;21.52;15.03;;;;;;;10.62;85.58;98996.17;2814672;84;20998;-80
2021/11/03 18:22:31;;;;;;;20.45;12.60;;;;;;;10.70;85.34;98998.86;2822994;84;21057;-79
2021/11/03 18:26:34;;;;;;;27.77;14.13;;;;;;;10.76;85.29;99001.38;2823177;84;21073;-79
2021/11/03 18:30:41;;;;;;;27.35;16.48;;;;;;;10.82;85.30;98998.59;2815564;84;21036;-73
2021/11/03 18:34:47;;;;;;;21.27;15.98;;;;;;;10.92;85.21;99013.92;2821929;83;21041;-73
2021/11/03 18:38:49;;;;;;;47.57;30.97;;;;;;;10.92;85.54;99025.08;2817237;84;21042;-73
2021/11/03 18:42:55;;;;;;;22.15;14.83;;;;;;;10.92;85.88;99020.57;2811156;84;21006;-73
2021/11/03 18:46:59;;;;;;;24.87;15.80;;;;;;;10.91;86.20;99008.77;2811250;84;21018;-72
2021/11/03 18:51:21;;;;;;;23.73;15.72;;;;;;;10.94;86.04;98990.64;2811281;84;21065;-72
2021/11/03 18:55:38;;;;;;;23.15;13.80;;;;;;;10.97;85.64;98989.50;2836599;79;21053;-75
2021/11/03 18:59:41;;;;;;;24.75;15.58;;;;;;;10.98;85.52;98988.00;2930793;81;21021;-73
2021/11/03 19:03:45;;;;;;;19.12;13.65;;;;;;;11.00;85.52;98978.05;2931548;81;21088;-72
2021/11/03 19:07:51;;;;;;;15.93;12.33;;;;;;;11.05;85.40;98976.73;2931392;79;21056;-71